PROFILE

 METAR AND TAF INFORMATION
ADDS - METARS form results

(1527 UTC 20 June 2019)
http://aviationweather.gov/metar/data/
 
DTTJ 201430Z 04007KT 010V070 8000 NSC 36/12 Q1012 NOSIG
TAF DTTJ 201100Z 2012/2112 36006KT 8000 NSC BECMG 2012/2014 10010KT BECMG 2106/2108 18008KT 

 AIRPORT MAP

 RUNWAY INFORMATION
Runway 09 Runway length 10171 ft Runway width 148 ft
Runway elevation 9 ft Runway displaced threshold 0 ft Runway heading 88
Runway 27 Runway length 10171 ft Runway width 148 ft
Runway elevation 18 ft Runway displaced threshold 0 ft Runway heading 268

 AIRPORT FREQUENCIES
Type APP Name DJERBA APP Frequency 120.3 MHZ
Type TWR Name DJERBA TWR Frequency 118.15 MHZ

 AIRPORT NEAR NAVIGATION AIDS
Type VOR-DME Name Djerba Frequency 112200 KHZ